Time;durP1;ratioP1;P1;durP2;ratioP2;P2;SDS_P1;SDS_P2;PMS_P1;PMS_P2;Temp;Humidity;BMP_temperature;BMP_pressure;BME280_temperature;BME280_humidity;BME280_pressure;Samples;Min_cycle;Max_cycle;Signal;HPM_P1;HPM_P2
2022/07/25 00:01:08;;;;;;;8.68;6.70;;;;;;;-148.88;68.86;74400.31;5055352;28;20028;-77
2022/07/25 00:03:33;;;;;;;8.98;7.28;;;;;;;-148.88;69.01;74402.34;5055083;28;20023;-77
2022/07/25 00:05:59;;;;;;;10.65;6.93;;;;;;;-148.88;69.10;74402.34;5053763;28;20033;-76
2022/07/25 00:08:24;;;;;;;8.20;6.90;;;;;;;-148.88;69.23;74404.38;5053857;28;20486;-77
2022/07/25 00:10:49;;;;;;;10.48;6.15;;;;;;;-148.88;69.05;74406.41;5053648;28;20398;-77
2022/07/25 00:13:15;;;;;;;7.55;6.50;;;;;;;-148.88;68.96;74404.38;5053705;28;20028;-77
2022/07/25 00:15:40;;;;;;;8.25;6.38;;;;;;;-148.88;69.26;74408.44;5054392;28;20027;-77
2022/07/25 00:18:05;;;;;;;11.65;6.82;;;;;;;-148.88;69.17;74412.47;5054841;28;20033;-77
2022/07/25 00:20:30;;;;;;;8.82;6.53;;;;;;;-148.88;69.59;74408.44;5052832;28;20078;-77
2022/07/25 00:22:56;;;;;;;9.60;6.50;;;;;;;-148.88;69.72;74412.47;5054700;28;20021;-77
2022/07/25 00:25:21;;;;;;;8.48;6.28;;;;;;;-148.88;69.77;74418.56;5054463;28;20048;-77
2022/07/25 00:27:46;;;;;;;8.70;6.35;;;;;;;-148.88;70.71;74422.63;5054392;28;20025;-77
2022/07/25 00:30:12;;;;;;;10.95;6.45;;;;;;;-148.88;71.26;74424.66;5053630;28;20108;-77
2022/07/25 00:32:37;;;;;;;8.32;6.35;;;;;;;-148.88;71.81;74430.75;5053539;28;20098;-77
2022/07/25 00:35:03;;;;;;;9.93;6.28;;;;;;;-148.88;71.91;74432.78;5054038;28;20021;-77
2022/07/25 00:37:28;;;;;;;11.43;7.10;;;;;;;-148.88;71.67;74432.78;5054214;28;20470;-77
2022/07/25 00:39:54;;;;;;;8.77;6.82;;;;;;;-148.88;71.81;74436.84;5054367;28;20048;-77
2022/07/25 00:42:20;;;;;;;8.75;6.40;;;;;;;-148.88;72.00;74444.97;5051965;28;20393;-76
2022/07/25 00:44:45;;;;;;;10.20;7.00;;;;;;;-148.88;72.32;74453.09;5052909;28;20082;-76
2022/07/25 00:47:11;;;;;;;9.65;6.93;;;;;;;-148.88;72.54;74453.09;5052967;28;20021;-76
2022/07/25 00:49:36;;;;;;;8.45;6.95;;;;;;;-148.88;72.43;74465.28;5052827;28;20024;-76
2022/07/25 00:52:01;;;;;;;7.47;6.45;;;;;;;-148.88;72.73;74457.16;5052670;28;20032;-77
2022/07/25 00:54:27;;;;;;;10.45;6.53;;;;;;;-148.88;72.88;74465.28;5052807;28;20045;-77
2022/07/25 00:56:52;;;;;;;10.10;6.70;;;;;;;-148.88;73.21;74467.31;5053482;28;20020;-77
2022/07/25 00:59:18;;;;;;;8.13;6.70;;;;;;;-148.88;72.99;74477.47;5053369;28;20504;-77
2022/07/25 01:01:46;;;;;;;9.40;7.07;;;;;;;-148.88;73.29;74467.31;5053323;28;20021;-77
2022/07/25 01:04:12;;;;;;;9.77;6.95;;;;;;;-148.88;73.31;74467.31;5053081;28;20170;-77
2022/07/25 01:06:38;;;;;;;8.10;6.93;;;;;;;-148.88;73.20;74461.22;5053137;28;20025;-77
2022/07/25 01:09:03;;;;;;;10.07;7.07;;;;;;;-148.88;73.67;74471.38;5053376;28;20017;-77
2022/07/25 01:11:28;;;;;;;9.93;7.10;;;;;;;-148.88;73.13;74471.38;5053476;28;20029;-77
2022/07/25 01:13:54;;;;;;;7.90;6.88;;;;;;;-148.88;73.85;74473.41;5053927;28;20404;-77
2022/07/25 01:16:19;;;;;;;8.32;7.07;;;;;;;-148.88;73.89;74473.41;5053122;28;20559;-77
2022/07/25 01:18:45;;;;;;;10.20;6.80;;;;;;;-148.88;73.79;74473.41;5052005;28;20124;-76
2022/07/25 01:21:10;;;;;;;9.07;7.18;;;;;;;-148.88;74.20;74481.53;5052488;28;20106;-76
2022/07/25 01:23:36;;;;;;;10.95;7.53;;;;;;;-148.88;74.60;74483.56;5052359;28;20055;-76
2022/07/25 01:26:01;;;;;;;8.50;7.22;;;;;;;-148.88;74.89;74493.72;5052277;28;20113;-77
2022/07/25 01:28:27;;;;;;;10.63;7.47;;;;;;;-148.88;74.98;74487.63;5052489;28;20588;-77
2022/07/25 01:30:52;;;;;;;10.52;7.32;;;;;;;-148.88;74.75;74489.66;5052314;28;20369;-76
2022/07/25 01:33:19;;;;;;;11.20;7.40;;;;;;;-148.88;74.95;74501.81;5052909;28;20025;-77
2022/07/25 01:35:45;;;;;;;9.70;7.32;;;;;;;-148.88;75.30;74511.97;5053237;28;20071;-77
2022/07/25 01:38:11;;;;;;;9.57;7.35;;;;;;;-148.88;75.19;74505.88;5053325;28;20478;-77
2022/07/25 01:40:37;;;;;;;10.80;7.88;;;;;;;-148.88;75.31;74501.81;5053260;28;20029;-77
2022/07/25 01:43:03;;;;;;;12.80;7.95;;;;;;;-148.88;75.20;74497.78;5053421;28;20017;-77
2022/07/25 01:45:28;;;;;;;10.13;7.00;;;;;;;-148.88;75.20;74499.81;5053548;28;20113;-77
2022/07/25 01:47:53;;;;;;;9.80;7.55;;;;;;;-148.88;74.98;74503.84;5053576;28;20033;-77
2022/07/25 01:50:19;;;;;;;8.27;6.82;;;;;;;-148.88;75.08;74501.81;5052850;28;20490;-77
2022/07/25 01:52:44;;;;;;;9.23;7.30;;;;;;;-148.88;75.40;74507.91;5051235;28;20017;-77
2022/07/25 01:55:10;;;;;;;10.20;7.22;;;;;;;-148.88;74.72;74507.91;5052984;28;20021;-77
2022/07/25 01:57:35;;;;;;;10.10;7.10;;;;;;;-148.88;73.94;74507.91;5052272;28;20509;-76
2022/07/25 02:00:01;;;;;;;10.20;7.38;;;;;;;-148.88;74.00;74505.88;5051968;28;20021;-76
2022/07/25 02:02:27;;;;;;;11.15;7.07;;;;;;;-148.88;73.50;74499.81;5054667;28;20013;-76
2022/07/25 02:04:52;;;;;;;10.07;7.28;;;;;;;-148.88;73.05;74501.81;5056099;28;20028;-77
2022/07/25 02:07:17;;;;;;;7.55;6.22;;;;;;;-148.88;72.85;74493.72;5056078;28;20064;-76
2022/07/25 02:09:43;;;;;;;8.30;6.82;;;;;;;-148.88;72.47;74489.66;5054705;28;20071;-76
2022/07/25 02:12:08;;;;;;;9.45;7.07;;;;;;;-148.88;71.86;74483.56;5056318;28;20083;-77
2022/07/25 02:14:33;;;;;;;10.15;6.68;;;;;;;-148.88;71.70;74489.66;5056315;28;20031;-77
2022/07/25 02:16:59;;;;;;;11.23;6.50;;;;;;;-148.88;70.92;74479.50;5056422;28;20033;-77
2022/07/25 02:19:24;;;;;;;7.70;6.03;;;;;;;-148.88;70.83;74469.34;5054891;28;20386;-77
2022/07/25 02:21:49;;;;;;;11.05;6.72;;;;;;;-148.88;70.71;74461.22;5056193;28;20013;-77
2022/07/25 02:24:15;;;;;;;8.10;6.70;;;;;;;-148.88;70.36;74465.28;5056069;28;20402;-76
2022/07/25 02:26:40;;;;;;;8.88;6.53;;;;;;;-148.88;70.49;74469.34;5056281;28;20029;-77
2022/07/25 02:29:05;;;;;;;9.55;7.35;;;;;;;-148.88;70.47;74461.22;5054972;28;20044;-77
2022/07/25 02:31:31;;;;;;;8.20;6.95;;;;;;;-148.88;71.05;74477.47;5054590;28;20496;-77
2022/07/25 02:33:56;;;;;;;9.38;6.72;;;;;;;-148.88;71.08;74477.47;5056641;28;20470;-76
2022/07/25 02:36:21;;;;;;;9.38;6.65;;;;;;;-148.88;71.36;74477.47;5055503;28;20142;-76
2022/07/25 02:38:47;;;;;;;9.20;6.63;;;;;;;-148.88;71.95;74473.41;5055474;28;20040;-77
2022/07/25 02:41:12;;;;;;;8.70;6.45;;;;;;;-148.88;72.17;74477.47;5055270;28;20025;-76
2022/07/25 02:43:37;;;;;;;9.05;6.88;;;;;;;-148.88;71.95;74481.53;5055336;28;20021;-76
2022/07/25 02:46:03;;;;;;;8.32;7.03;;;;;;;-148.88;71.82;74487.63;5055241;28;20478;-76
2022/07/25 02:48:28;;;;;;;9.75;6.85;;;;;;;-148.88;71.78;74481.53;5055284;28;20040;-77
2022/07/25 02:50:54;;;;;;;7.32;6.30;;;;;;;-148.88;72.10;74493.72;5055342;28;20032;-77
2022/07/25 02:53:19;;;;;;;8.48;6.95;;;;;;;-148.88;72.65;74497.78;5088990;22;20749;-83
2022/07/25 02:55:44;;;;;;;10.50;7.00;;;;;;;-148.88;73.38;74503.84;5055370;28;20104;-83
2022/07/25 02:58:10;;;;;;;10.25;6.90;;;;;;;-148.88;73.99;74509.94;5055287;28;20021;-82
2022/07/25 03:00:36;;;;;;;9.48;7.18;;;;;;;-148.88;73.84;74501.81;5055064;28;20025;-84
2022/07/25 03:03:01;;;;;;;8.05;6.70;;;;;;;-148.88;73.59;74509.94;5055136;28;20028;-83
2022/07/25 03:05:26;;;;;;;9.60;7.05;;;;;;;-148.88;73.34;74522.13;5055083;28;20017;-83
2022/07/25 03:07:52;;;;;;;11.43;7.15;;;;;;;-148.88;73.80;74526.19;5054536;28;20024;-83
2022/07/25 03:10:17;;;;;;;8.48;6.78;;;;;;;-148.88;72.95;74522.13;5053796;28;20024;-83
2022/07/25 03:12:43;;;;;;;9.43;7.20;;;;;;;-148.88;73.22;74524.16;5053549;28;20398;-84
2022/07/25 03:15:10;;;;;;;9.05;6.95;;;;;;;-148.88;72.93;74526.19;5053552;28;20065;-84
2022/07/25 03:17:35;;;;;;;11.23;7.20;;;;;;;-148.88;73.07;74526.19;5055335;28;20402;-83
2022/07/25 03:20:01;;;;;;;11.27;7.13;;;;;;;-148.88;73.22;74530.25;5053647;28;20024;-83
2022/07/25 03:22:26;;;;;;;8.20;7.35;;;;;;;-148.88;72.85;74520.09;5054777;28;20043;-83
2022/07/25 03:24:55;;;;;;;10.75;7.10;;;;;;;-148.88;72.95;74518.06;5053581;28;20107;-82
2022/07/25 03:27:20;;;;;;;9.30;7.18;;;;;;;-148.88;72.83;74526.19;5053493;28;20078;-83
2022/07/25 03:29:45;;;;;;;9.98;7.05;;;;;;;-148.88;72.90;74514.00;5054831;28;20029;-84
2022/07/25 03:32:11;;;;;;;8.00;6.50;;;;;;;-148.88;73.22;74518.06;5054615;28;20078;-82
2022/07/25 03:34:36;;;;;;;8.93;6.97;;;;;;;-148.88;73.19;74524.16;5054625;28;20064;-83
2022/07/25 03:37:03;;;;;;;10.82;7.25;;;;;;;-148.88;73.55;74532.28;5053899;28;20115;-84
2022/07/25 03:39:28;;;;;;;10.65;7.43;;;;;;;-148.88;73.79;74534.31;5054557;28;20437;-83
2022/07/25 03:41:54;;;;;;;9.43;7.03;;;;;;;-148.88;73.92;74540.41;5054368;28;20021;-83
2022/07/25 03:44:20;;;;;;;9.38;7.20;;;;;;;-148.88;73.94;74538.38;5054267;28;20056;-84
2022/07/25 03:46:45;;;;;;;9.07;7.10;;;;;;;-148.88;73.56;74534.31;5053787;28;20162;-83
2022/07/25 03:49:11;;;;;;;10.52;7.28;;;;;;;-148.88;73.21;74526.19;5053050;28;20027;-83
2022/07/25 03:51:36;;;;;;;9.00;7.18;;;;;;;-148.88;72.95;74526.19;5054439;28;20052;-83
2022/07/25 03:54:02;;;;;;;9.75;7.40;;;;;;;-148.88;72.64;74522.13;5053061;28;20036;-83
2022/07/25 03:56:34;;;;;;;10.52;7.07;;;;;;;-148.88;72.42;74518.06;5052950;28;20394;-83
2022/07/25 03:58:59;;;;;;;7.90;6.47;;;;;;;-148.88;72.48;74514.00;5052875;28;20123;-83
2022/07/25 04:01:25;;;;;;;9.98;7.60;;;;;;;-148.88;72.07;74511.97;5052889;28;20064;-83
2022/07/25 04:03:50;;;;;;;9.32;7.10;;;;;;;-148.88;71.92;74507.91;5052658;28;20479;-84
2022/07/25 04:06:15;;;;;;;9.55;6.88;;;;;;;-148.88;71.90;74503.84;5053802;28;20047;-83
2022/07/25 04:08:41;;;;;;;7.60;6.28;;;;;;;-148.88;71.64;74501.81;5053931;28;20025;-83
2022/07/25 04:11:06;;;;;;;8.95;6.60;;;;;;;-148.88;71.68;74497.78;5052601;28;20060;-84
2022/07/25 04:13:31;;;;;;;10.02;6.97;;;;;;;-148.88;71.51;74495.75;5052428;28;20043;-83
2022/07/25 04:15:57;;;;;;;9.38;6.63;;;;;;;-148.88;71.63;74485.59;5054341;28;20033;-84
2022/07/25 04:18:22;;;;;;;10.75;7.38;;;;;;;-148.88;71.73;74487.63;5053742;28;20433;-83
2022/07/25 04:20:47;;;;;;;9.65;7.13;;;;;;;-148.88;71.48;74477.47;5052284;28;20025;-83
2022/07/25 04:23:13;;;;;;;8.68;6.43;;;;;;;-148.88;71.50;74477.47;5052647;28;20172;-83
2022/07/25 04:25:38;;;;;;;8.73;6.70;;;;;;;-148.88;71.52;74477.47;5051850;28;20021;-82
2022/07/25 04:28:03;;;;;;;8.85;7.22;;;;;;;-148.88;71.27;74469.34;5052403;28;20025;-84
2022/07/25 04:30:29;;;;;;;8.45;6.72;;;;;;;-148.88;71.25;74461.22;5052710;28;20025;-83
2022/07/25 04:32:54;;;;;;;7.55;6.25;;;;;;;-148.88;71.18;74467.31;5052729;28;20025;-84
2022/07/25 04:35:20;;;;;;;11.13;7.07;;;;;;;-148.88;70.98;74453.09;5052416;28;20407;-83
2022/07/25 04:37:45;;;;;;;9.27;6.63;;;;;;;-148.88;70.71;74449.03;5052138;28;20024;-83
2022/07/25 04:40:11;;;;;;;9.60;6.93;;;;;;;-148.88;70.68;74444.97;5052933;28;20025;-82
2022/07/25 04:42:36;;;;;;;11.80;6.90;;;;;;;-148.88;70.75;74444.97;5052067;28;20036;-83
2022/07/25 04:45:02;;;;;;;9.65;7.25;;;;;;;-148.88;70.97;74436.84;5052551;28;20053;-83
2022/07/25 04:47:27;;;;;;;7.93;6.60;;;;;;;-148.88;71.38;74432.78;5052652;28;20037;-83
2022/07/25 04:49:53;;;;;;;8.90;6.80;;;;;;;-148.88;71.15;74430.75;5053809;28;20020;-82
2022/07/25 04:52:19;;;;;;;8.77;6.55;;;;;;;-148.88;71.11;74420.59;5052127;28;20490;-83
2022/07/25 04:54:44;;;;;;;8.65;6.95;;;;;;;-148.88;71.28;74420.59;5052797;28;20057;-86
2022/07/25 04:57:09;;;;;;;11.57;7.03;;;;;;;-148.88;71.40;74412.47;5051986;28;20106;-83
2022/07/25 04:59:34;;;;;;;11.43;7.05;;;;;;;-148.88;71.65;74404.38;5051899;28;20027;-83
2022/07/25 05:02:00;;;;;;;9.80;7.38;;;;;;;-148.88;71.58;74398.28;5051862;28;20103;-84
2022/07/25 05:04:25;;;;;;;9.60;7.15;;;;;;;-148.88;71.23;74390.16;5052980;28;20479;-83
2022/07/25 05:06:51;;;;;;;9.32;7.00;;;;;;;-148.88;70.73;74380.00;5053151;28;20035;-83
2022/07/25 05:09:16;;;;;;;8.15;6.35;;;;;;;-148.88;70.56;74371.88;5052801;28;20052;-83
2022/07/25 05:11:41;;;;;;;10.30;6.68;;;;;;;-148.88;70.61;74359.69;5051827;28;20098;-83
2022/07/25 05:14:06;;;;;;;7.93;6.35;;;;;;;-148.88;70.96;74341.41;5052265;28;20035;-83
2022/07/25 05:16:32;;;;;;;9.43;6.55;;;;;;;-148.88;70.67;74333.28;5052014;28;20025;-82
2022/07/25 05:18:57;;;;;;;9.55;7.15;;;;;;;-148.88;70.68;74317.06;5053254;28;20020;-83
2022/07/25 05:21:22;;;;;;;12.27;6.85;;;;;;;-148.88;69.51;74302.84;5053189;28;20035;-83
2022/07/25 05:23:48;;;;;;;8.65;6.65;;;;;;;-148.88;70.83;74282.53;5052932;28;20495;-84
2022/07/25 05:26:13;;;;;;;10.57;6.35;;;;;;;-148.88;70.85;74270.34;5051661;28;20025;-84
2022/07/25 05:28:38;;;;;;;7.50;6.15;;;;;;;-148.88;69.41;74246.00;5053125;28;20036;-84
2022/07/25 05:31:03;;;;;;;8.85;6.20;;;;;;;-148.88;68.76;74235.84;5053038;28;20107;-84
2022/07/25 05:33:29;;;;;;;7.25;6.53;;;;;;;-148.88;68.57;74221.63;5051715;28;20028;-83
2022/07/25 05:35:54;;;;;;;7.63;6.18;;;;;;;-148.88;66.33;74201.31;5051953;28;20155;-83
2022/07/25 05:38:20;;;;;;;6.53;5.75;;;;;;;-148.88;65.62;74185.06;5055355;28;20051;-83
2022/07/25 05:40:45;;;;;;;9.88;6.47;;;;;;;-148.88;65.57;74168.84;5055514;28;20052;-84
2022/07/25 05:43:10;;;;;;;7.93;6.35;;;;;;;-148.88;64.47;74144.47;5055518;28;20020;-82
2022/07/25 05:45:35;;;;;;;8.73;5.93;;;;;;;-148.88;63.18;74136.34;5055377;28;20029;-83
2022/07/25 05:48:01;;;;;;;7.10;6.05;;;;;;;-148.88;63.82;74126.19;5055323;28;20459;-84
2022/07/25 05:50:26;;;;;;;9.13;6.22;;;;;;;-148.88;63.75;74107.91;5055552;28;20027;-83
2022/07/25 05:52:51;;;;;;;7.80;6.10;;;;;;;-148.88;62.95;74083.56;5057179;28;20091;-85
2022/07/25 05:55:17;;;;;;;8.32;6.10;;;;;;;-148.88;62.83;74077.47;5055391;28;20518;-84
2022/07/25 05:57:42;;;;;;;7.28;5.47;;;;;;;-148.88;62.36;74067.31;5055716;28;20020;-83
2022/07/25 06:00:08;;;;;;;8.38;6.53;;;;;;;-148.88;61.83;74055.13;5056442;28;20463;-84
2022/07/25 06:02:33;;;;;;;6.45;5.60;;;;;;;-148.88;59.61;74049.03;5055001;28;20013;-83
2022/07/25 06:04:58;;;;;;;8.98;6.65;;;;;;;-148.88;60.53;74040.91;5055166;28;20036;-84
2022/07/25 06:07:24;;;;;;;8.05;5.65;;;;;;;-148.88;60.72;74034.81;5055079;28;20032;-82
2022/07/25 06:09:49;;;;;;;8.73;5.85;;;;;;;-148.88;59.64;74024.69;5055070;28;20032;-85
2022/07/25 06:12:15;;;;;;;8.80;6.28;;;;;;;-148.88;59.53;74026.72;5056176;28;20017;-83
2022/07/25 06:14:40;;;;;;;9.32;5.70;;;;;;;-148.88;59.65;74018.59;5055270;28;20033;-84
2022/07/25 06:17:05;;;;;;;8.85;6.40;;;;;;;-148.88;59.79;74006.41;5056113;28;20017;-83
2022/07/25 06:19:30;;;;;;;9.52;6.05;;;;;;;-148.88;59.93;74004.38;5055964;28;20035;-84
2022/07/25 06:21:56;;;;;;;7.13;6.13;;;;;;;-148.88;60.96;73998.28;5056493;28;20035;-84
2022/07/25 06:24:21;;;;;;;8.00;5.75;;;;;;;-148.88;60.81;73988.13;5055800;28;20098;-83
2022/07/25 06:26:46;;;;;;;6.93;5.75;;;;;;;-148.88;60.90;73973.91;5054696;28;20115;-84
2022/07/25 06:29:11;;;;;;;8.43;5.85;;;;;;;-148.88;59.82;73963.75;5054700;28;20021;-83
2022/07/25 06:31:37;;;;;;;9.27;5.82;;;;;;;-148.88;59.36;73953.63;5055826;28;20471;-83
2022/07/25 06:34:02;;;;;;;6.88;5.47;;;;;;;-148.88;58.93;73933.31;5054685;28;20035;-83
2022/07/25 06:36:27;;;;;;;8.32;5.38;;;;;;;-148.88;58.77;73929.25;5054912;28;20032;-83
2022/07/25 06:38:52;;;;;;;8.20;5.75;;;;;;;-148.88;57.10;73913.00;5054766;28;20029;-84
2022/07/25 06:41:18;;;;;;;6.70;5.97;;;;;;;-148.88;56.35;73908.94;5054580;28;20035;-84
2022/07/25 06:43:43;;;;;;;8.20;5.78;;;;;;;-148.88;56.86;73900.81;5055350;28;20025;-83
2022/07/25 06:46:08;;;;;;;8.73;5.78;;;;;;;-148.88;56.15;73888.66;5055982;28;20029;-84
2022/07/25 06:48:34;;;;;;;7.20;5.60;;;;;;;-148.88;54.65;73864.28;5054352;28;20067;-83
2022/07/25 06:51:00;;;;;;;7.53;6.07;;;;;;;-148.88;54.32;73856.16;5054602;28;20025;-85
2022/07/25 06:53:25;;;;;;;9.15;5.72;;;;;;;-148.88;54.73;73841.94;5053896;28;20029;-85
2022/07/25 06:55:50;;;;;;;9.32;6.55;;;;;;;-148.88;53.65;73817.59;5055323;28;20033;-83
2022/07/25 06:58:16;;;;;;;8.85;5.60;;;;;;;-148.88;53.95;73809.47;5054336;28;20067;-83
2022/07/25 07:00:41;;;;;;;8.48;5.85;;;;;;;-148.88;52.70;73791.19;5054272;28;20021;-83
2022/07/25 07:03:06;;;;;;;7.20;5.75;;;;;;;-148.88;53.54;73791.19;5053942;28;20155;-84
2022/07/25 07:05:35;;;;;;;8.07;6.03;;;;;;;-148.88;52.57;73772.91;5055525;28;20025;-83
2022/07/25 07:08:01;;;;;;;6.47;5.65;;;;;;;-148.88;52.34;73762.78;5053999;28;20036;-83
2022/07/25 07:10:27;;;;;;;8.35;5.72;;;;;;;-148.88;51.13;73758.72;5054730;28;20029;-84
2022/07/25 07:13:09;;;;;;;7.57;5.55;;;;;;;-148.88;51.73;73746.53;5055774;28;20028;-84
2022/07/25 07:15:35;;;;;;;8.20;5.47;;;;;;;-148.88;51.82;73746.53;5053948;28;20029;-82
2022/07/25 07:18:00;;;;;;;9.73;5.72;;;;;;;-148.88;51.63;73740.44;5053662;28;20028;-84
2022/07/25 07:20:26;;;;;;;7.28;5.85;;;;;;;-148.88;51.91;73742.47;5053641;28;20025;-83
2022/07/25 07:22:51;;;;;;;8.18;6.13;;;;;;;-148.88;53.18;73734.34;5053749;28;20086;-83
2022/07/25 07:25:18;;;;;;;9.57;6.10;;;;;;;-148.88;50.13;73726.22;5053578;28;20021;-84
2022/07/25 07:27:44;;;;;;;10.43;6.07;;;;;;;-148.88;50.60;73707.97;5053886;28;20115;-84
2022/07/25 07:30:10;;;;;;;6.75;5.80;;;;;;;-148.88;51.01;73703.91;5054775;28;20108;-82
2022/07/25 07:32:36;;;;;;;10.30;5.93;;;;;;;-148.88;53.43;73699.84;5053550;28;20024;-85
2022/07/25 07:35:01;;;;;;;7.53;5.57;;;;;;;-148.88;52.77;73693.75;5054538;28;20028;-83
2022/07/25 07:37:27;;;;;;;9.02;5.50;;;;;;;-148.88;51.64;73661.25;5053257;28;20025;-83
2022/07/25 07:39:52;;;;;;;11.27;6.43;;;;;;;-148.88;49.65;73640.97;5053231;28;20031;-83
2022/07/25 07:42:17;;;;;;;9.95;6.18;;;;;;;-148.88;48.55;73622.69;5053390;28;20434;-83
2022/07/25 07:44:43;;;;;;;7.60;5.68;;;;;;;-148.88;49.64;73604.41;5053961;28;20016;-83
2022/07/25 07:47:08;;;;;;;8.45;5.80;;;;;;;-148.88;50.11;73612.53;5054604;28;20027;-83
2022/07/25 07:49:33;;;;;;;6.97;5.85;;;;;;;-148.88;48.52;73608.47;5053417;28;20064;-83
2022/07/25 07:51:58;;;;;;;8.18;5.93;;;;;;;-148.88;48.40;73606.44;5054156;28;20446;-84
2022/07/25 07:57:09;;;;;;;7.97;5.78;;;;;;;-148.88;47.61;73569.91;5053296;28;20055;-83
2022/07/25 07:59:34;;;;;;;7.90;5.85;;;;;;;-148.88;48.40;73543.50;5052325;28;20024;-84
2022/07/25 08:01:59;;;;;;;7.85;6.18;;;;;;;-148.88;46.73;73533.38;5053860;28;20074;-83
2022/07/25 08:04:24;;;;;;;9.77;6.38;;;;;;;-148.88;45.95;73517.13;5054669;28;20488;-82
2022/07/25 08:06:50;;;;;;;7.30;6.07;;;;;;;-148.88;45.71;73488.72;5054153;28;20025;-83
2022/07/25 08:09:15;;;;;;;8.50;5.82;;;;;;;-148.88;45.10;73466.38;5053064;28;20494;-83
2022/07/25 08:11:40;;;;;;;7.78;6.25;;;;;;;-148.88;46.90;73427.81;5052994;28;20048;-82
2022/07/25 08:14:06;;;;;;;7.57;5.82;;;;;;;-148.88;45.69;73405.47;5053851;28;20028;-83
2022/07/25 08:16:32;;;;;;;8.18;6.30;;;;;;;-148.88;45.03;73370.97;5052526;28;20036;-83
2022/07/25 08:18:57;;;;;;;8.63;5.80;;;;;;;-148.88;44.00;73342.53;5052877;28;20467;-84
2022/07/25 08:21:23;;;;;;;6.65;5.80;;;;;;;-148.88;43.74;73340.50;5055477;28;20055;-81
2022/07/25 08:23:48;;;;;;;7.07;6.15;;;;;;;-148.88;42.03;73348.63;5052551;28;20017;-83
2022/07/25 08:26:13;;;;;;;8.52;6.00;;;;;;;-148.88;42.01;73330.38;5054199;28;20104;-83
2022/07/25 08:28:39;;;;;;;10.63;6.22;;;;;;;-148.88;41.56;73279.63;5053702;28;20017;-83
2022/07/25 08:31:05;;;;;;;8.98;6.32;;;;;;;-148.88;40.99;73263.38;5052555;28;20021;-83
2022/07/25 08:33:31;;;;;;;8.40;5.78;;;;;;;-148.88;40.77;73265.41;5052222;28;20029;-84
2022/07/25 08:36:00;;;;;;;7.78;5.97;;;;;;;-148.88;41.16;73269.47;5052363;28;20017;-82
2022/07/25 08:38:27;;;;;;;8.20;6.03;;;;;;;-148.88;42.00;73279.63;5054325;28;20032;-83
2022/07/25 08:40:54;;;;;;;10.73;6.03;;;;;;;-148.88;41.51;73253.22;5053208;28;20016;-83
2022/07/25 08:43:20;;;;;;;7.65;6.10;;;;;;;-148.88;41.15;73234.97;5053639;28;20063;-83
2022/07/25 08:45:51;;;;;;;7.55;5.97;;;;;;;-148.88;41.14;73222.78;5053472;28;20052;-82
2022/07/25 08:48:19;;;;;;;7.80;6.10;;;;;;;-148.88;40.63;73216.69;5052062;28;20021;-83
2022/07/25 08:50:46;;;;;;;7.28;6.13;;;;;;;-148.88;40.40;73198.41;5052699;28;20060;-82
2022/07/25 08:55:38;;;;;;;9.23;5.57;;;;;;;-148.88;40.46;73202.47;5083395;22;20061;-89
2022/07/25 08:58:06;;;;;;;8.52;6.10;;;;;;;-148.88;40.20;73206.53;5052019;28;20441;-87
2022/07/25 09:00:32;;;;;;;8.60;6.35;;;;;;;-148.88;40.23;73198.41;5053344;28;20048;-86
2022/07/25 09:03:10;;;;;;;7.20;5.60;;;;;;;-148.88;40.69;73194.34;5052312;28;20450;-87
2022/07/25 09:05:36;;;;;;;6.97;5.70;;;;;;;-148.88;40.72;73182.19;5051794;28;20025;-87
2022/07/25 09:08:22;;;;;;;6.70;5.80;;;;;;;-148.88;39.76;73165.94;5052617;28;20017;-87
2022/07/25 09:11:14;;;;;;;7.40;5.95;;;;;;;-148.88;40.31;73145.63;5054063;28;20406;-87
2022/07/25 09:13:40;;;;;;;8.88;6.43;;;;;;;-148.88;39.93;73105.03;5047543;28;20033;-85
2022/07/25 09:16:06;;;;;;;7.60;5.82;;;;;;;-148.88;38.99;73107.06;5057128;28;20489;-85
2022/07/25 09:18:32;;;;;;;7.93;5.75;;;;;;;-148.88;39.38;73115.19;5056182;28;20060;-86
2022/07/25 09:21:02;;;;;;;7.65;5.90;;;;;;;-148.88;39.42;73125.34;5055942;28;20175;-87
2022/07/25 09:23:39;;;;;;;7.10;5.95;;;;;;;-148.88;39.82;73129.41;5056708;28;20023;-86
2022/07/25 09:26:12;;;;;;;8.10;6.43;;;;;;;-148.88;39.04;73115.19;5056595;28;20028;-87
2022/07/25 09:28:53;;;;;;;8.70;5.97;;;;;;;-148.88;39.99;73107.06;5055821;28;20509;-87
2022/07/25 09:31:18;;;;;;;13.63;6.88;;;;;;;-148.88;39.02;73113.16;5057363;28;20475;-87
2022/07/25 09:33:50;;;;;;;6.78;5.97;;;;;;;-148.88;39.39;73107.06;5057090;28;20025;-86
2022/07/25 09:36:16;;;;;;;7.35;6.15;;;;;;;-148.88;39.86;73113.16;5056813;28;20493;-86
2022/07/25 09:38:54;;;;;;;8.38;6.40;;;;;;;-148.88;39.64;73129.41;5056440;28;20055;-87
2022/07/25 09:41:31;;;;;;;9.13;6.18;;;;;;;-148.88;40.07;73123.31;5057174;28;20399;-87
2022/07/25 09:44:05;;;;;;;6.90;6.10;;;;;;;-148.88;39.78;73135.50;5055724;28;20028;-86
2022/07/25 09:46:33;;;;;;;7.18;6.07;;;;;;;-148.88;39.56;73133.47;5057633;28;20096;-86
2022/07/25 09:49:04;;;;;;;7.95;6.07;;;;;;;-148.88;39.58;73125.34;5057126;28;20025;-86
2022/07/25 09:51:30;;;;;;;7.55;5.68;;;;;;;-148.88;39.37;73137.53;5056568;28;20029;-87
2022/07/25 09:53:59;;;;;;;9.20;6.22;;;;;;;-148.88;38.68;73145.63;5056930;28;20044;-86
2022/07/25 09:56:53;;;;;;;8.25;5.60;;;;;;;-148.88;38.25;73178.13;5056768;28;20021;-85
2022/07/25 09:59:21;;;;;;;9.75;5.65;;;;;;;-148.88;38.31;73194.34;5052455;28;20380;-87
2022/07/25 10:02:08;;;;;;;6.68;4.97;;;;;;;-148.88;38.68;73202.47;5056444;28;20028;-87
2022/07/25 10:04:50;;;;;;;9.48;5.65;;;;;;;-148.88;38.76;73208.56;5055575;28;20483;-87
2022/07/25 10:07:27;;;;;;;9.55;6.05;;;;;;;-148.88;38.75;73198.41;5055206;28;20021;-87
2022/07/25 10:09:56;;;;;;;8.45;5.35;;;;;;;-148.88;38.84;73202.47;5056018;28;20020;-87
2022/07/25 10:12:40;;;;;;;7.07;5.43;;;;;;;-148.88;39.28;73202.47;5056391;28;20028;-87
2022/07/25 10:15:10;;;;;;;6.30;5.45;;;;;;;-148.88;39.57;73200.44;5055357;28;20035;-87
2022/07/25 10:17:39;;;;;;;7.25;5.65;;;;;;;-148.88;39.89;73194.34;5055171;28;20056;-87
2022/07/25 10:20:13;;;;;;;6.55;5.57;;;;;;;-148.88;40.17;73198.41;5055478;28;20060;-89
2022/07/25 10:22:44;;;;;;;8.55;5.80;;;;;;;-148.88;39.02;73202.47;5055362;28;20128;-87
2022/07/25 10:25:15;;;;;;;7.75;5.38;;;;;;;-148.88;39.17;73202.47;5054852;28;20166;-87
2022/07/25 10:27:58;;;;;;;9.20;5.50;;;;;;;-148.88;39.49;73222.78;5055230;28;20025;-87
2022/07/25 10:30:42;;;;;;;7.30;5.60;;;;;;;-148.88;39.30;73222.78;5055185;28;20037;-86
2022/07/25 10:33:20;;;;;;;10.07;5.68;;;;;;;-148.88;39.25;73220.75;5054569;28;20403;-87
2022/07/25 10:35:46;;;;;;;6.88;5.65;;;;;;;-148.88;38.73;73218.72;5055307;28;20108;-86
2022/07/25 10:38:11;;;;;;;10.43;5.72;;;;;;;-148.88;39.61;73214.66;5055332;28;20147;-86
2022/07/25 10:40:42;;;;;;;9.10;5.35;;;;;;;-148.88;38.43;73212.63;5054686;28;20105;-86
2022/07/25 10:43:12;;;;;;;7.88;5.80;;;;;;;-148.88;39.06;73190.31;5054588;28;20147;-87
2022/07/25 10:46:09;;;;;;;9.52;5.88;;;;;;;-148.88;39.84;73145.63;5054662;28;20021;-87
2022/07/25 10:48:37;;;;;;;7.65;5.95;;;;;;;-148.88;37.73;73105.03;5051957;28;20064;-86
2022/07/25 10:51:09;;;;;;;7.32;5.20;;;;;;;-148.88;37.68;73054.28;5056165;28;20111;-86
2022/07/25 10:53:46;;;;;;;8.70;5.43;;;;;;;-148.88;37.26;72987.31;5056824;28;20368;-87
2022/07/25 10:56:15;;;;;;;7.15;5.45;;;;;;;-148.88;35.84;72950.78;5055864;28;20028;-87
2022/07/25 10:58:43;;;;;;;8.00;5.65;;;;;;;-148.88;34.99;72934.53;5055598;28;20035;-87
2022/07/25 11:01:09;;;;;;;8.02;5.07;;;;;;;-148.88;35.80;72928.44;5055772;28;20032;-87
2022/07/25 11:03:34;;;;;;;7.07;5.40;;;;;;;-148.88;34.89;72948.75;5055475;28;20021;-87
2022/07/25 11:06:02;;;;;;;8.55;5.82;;;;;;;-148.88;35.03;72920.34;5055629;28;20032;-88
2022/07/25 11:08:34;;;;;;;7.07;5.68;;;;;;;-148.88;34.62;72916.28;5054412;28;20044;-88
2022/07/25 11:11:00;;;;;;;6.70;5.53;;;;;;;-148.88;34.77;72893.94;5054950;28;20024;-89
2022/07/25 11:13:26;;;;;;;7.45;5.35;;;;;;;-148.88;35.15;72885.81;5055989;28;20082;-88
2022/07/25 11:15:56;;;;;;;6.90;5.45;;;;;;;-148.88;34.66;72898.00;5056449;28;20029;-88
2022/07/25 11:18:32;;;;;;;7.30;5.38;;;;;;;-148.88;36.31;72893.94;5056060;28;20466;-87
2022/07/25 11:21:04;;;;;;;12.02;5.95;;;;;;;-148.88;34.94;72910.19;5055729;28;20039;-88